sensor_id;sensor_type;location;lat;lon;timestamp;P1;durP1;ratioP1;P2;durP2;ratioP2
75716;SDS011;64333;50.138;14.332;2024-02-28T00:01:50;19.65;;;11.20;;
75716;SDS011;64333;50.138;14.332;2024-02-28T00:04:16;17.77;;;10.82;;
75716;SDS011;64333;50.138;14.332;2024-02-28T00:06:42;17.17;;;10.68;;
75716;SDS011;64333;50.138;14.332;2024-02-28T00:09:08;18.88;;;11.77;;
75716;SDS011;64333;50.138;14.332;2024-02-28T00:11:34;20.42;;;11.90;;
75716;SDS011;64333;50.138;14.332;2024-02-28T00:14:00;17.80;;;11.25;;
75716;SDS011;64333;50.138;14.332;2024-02-28T00:16:26;19.10;;;11.20;;
75716;SDS011;64333;50.138;14.332;2024-02-28T00:18:51;17.77;;;10.90;;
75716;SDS011;64333;50.138;14.332;2024-02-28T00:21:17;19.48;;;12.25;;
75716;SDS011;64333;50.138;14.332;2024-02-28T00:23:42;19.40;;;11.35;;
75716;SDS011;64333;50.138;14.332;2024-02-28T00:26:07;19.05;;;11.52;;
75716;SDS011;64333;50.138;14.332;2024-02-28T00:28:33;21.23;;;12.80;;
75716;SDS011;64333;50.138;14.332;2024-02-28T00:30:58;19.20;;;12.27;;
75716;SDS011;64333;50.138;14.332;2024-02-28T00:33:23;20.20;;;11.68;;
75716;SDS011;64333;50.138;14.332;2024-02-28T00:35:49;16.92;;;10.80;;
75716;SDS011;64333;50.138;14.332;2024-02-28T00:38:14;19.42;;;11.68;;
75716;SDS011;64333;50.138;14.332;2024-02-28T00:40:39;19.98;;;12.25;;
75716;SDS011;64333;50.138;14.332;2024-02-28T00:43:05;20.00;;;11.70;;
75716;SDS011;64333;50.138;14.332;2024-02-28T00:45:30;21.45;;;12.25;;
75716;SDS011;64333;50.138;14.332;2024-02-28T00:47:55;21.42;;;12.43;;
75716;SDS011;64333;50.138;14.332;2024-02-28T00:50:21;23.08;;;12.50;;
75716;SDS011;64333;50.138;14.332;2024-02-28T00:52:46;20.70;;;12.10;;
75716;SDS011;64333;50.138;14.332;2024-02-28T00:55:11;20.65;;;12.30;;
75716;SDS011;64333;50.138;14.332;2024-02-28T00:57:37;19.00;;;11.85;;
75716;SDS011;64333;50.138;14.332;2024-02-28T01:00:02;17.13;;;11.95;;
75716;SDS011;64333;50.138;14.332;2024-02-28T01:02:28;21.65;;;12.88;;
75716;SDS011;64333;50.138;14.332;2024-02-28T01:04:53;22.58;;;12.27;;
75716;SDS011;64333;50.138;14.332;2024-02-28T01:07:18;18.73;;;11.75;;
75716;SDS011;64333;50.138;14.332;2024-02-28T01:09:44;17.52;;;11.40;;
75716;SDS011;64333;50.138;14.332;2024-02-28T01:12:09;18.02;;;11.73;;
75716;SDS011;64333;50.138;14.332;2024-02-28T01:14:34;16.77;;;11.02;;
75716;SDS011;64333;50.138;14.332;2024-02-28T01:17:00;19.98;;;12.43;;
75716;SDS011;64333;50.138;14.332;2024-02-28T01:19:25;19.17;;;11.43;;
75716;SDS011;64333;50.138;14.332;2024-02-28T01:21:50;19.02;;;10.88;;
75716;SDS011;64333;50.138;14.332;2024-02-28T01:24:16;17.02;;;10.93;;
75716;SDS011;64333;50.138;14.332;2024-02-28T01:26:41;17.58;;;11.60;;
75716;SDS011;64333;50.138;14.332;2024-02-28T01:29:06;17.58;;;10.80;;
75716;SDS011;64333;50.138;14.332;2024-02-28T01:31:32;17.55;;;10.68;;
75716;SDS011;64333;50.138;14.332;2024-02-28T01:33:57;15.55;;;10.43;;
75716;SDS011;64333;50.138;14.332;2024-02-28T01:36:22;16.40;;;10.32;;
75716;SDS011;64333;50.138;14.332;2024-02-28T01:38:48;16.30;;;9.95;;
75716;SDS011;64333;50.138;14.332;2024-02-28T01:41:13;14.55;;;10.18;;
75716;SDS011;64333;50.138;14.332;2024-02-28T01:43:38;15.95;;;9.80;;
75716;SDS011;64333;50.138;14.332;2024-02-28T01:46:13;13.90;;;9.10;;
75716;SDS011;64333;50.138;14.332;2024-02-28T01:48:52;15.07;;;9.55;;
75716;SDS011;64333;50.138;14.332;2024-02-28T01:51:18;15.10;;;9.73;;
75716;SDS011;64333;50.138;14.332;2024-02-28T01:53:44;17.15;;;9.88;;
75716;SDS011;64333;50.138;14.332;2024-02-28T01:56:11;18.25;;;10.30;;
75716;SDS011;64333;50.138;14.332;2024-02-28T01:58:39;15.95;;;9.55;;
75716;SDS011;64333;50.138;14.332;2024-02-28T02:01:04;14.93;;;10.05;;
75716;SDS011;64333;50.138;14.332;2024-02-28T02:03:32;17.27;;;11.63;;
75716;SDS011;64333;50.138;14.332;2024-02-28T02:05:59;15.35;;;10.13;;
75716;SDS011;64333;50.138;14.332;2024-02-28T02:08:26;15.48;;;9.98;;
75716;SDS011;64333;50.138;14.332;2024-02-28T02:10:52;13.70;;;9.02;;
75716;SDS011;64333;50.138;14.332;2024-02-28T02:13:17;17.73;;;9.90;;
75716;SDS011;64333;50.138;14.332;2024-02-28T02:15:42;15.27;;;9.37;;
75716;SDS011;64333;50.138;14.332;2024-02-28T02:18:08;12.05;;;9.27;;
75716;SDS011;64333;50.138;14.332;2024-02-28T02:20:33;16.23;;;10.52;;
75716;SDS011;64333;50.138;14.332;2024-02-28T02:23:07;17.70;;;10.15;;
75716;SDS011;64333;50.138;14.332;2024-02-28T02:25:33;13.98;;;9.80;;
75716;SDS011;64333;50.138;14.332;2024-02-28T02:27:58;17.27;;;9.85;;
75716;SDS011;64333;50.138;14.332;2024-02-28T02:30:24;14.95;;;8.80;;
75716;SDS011;64333;50.138;14.332;2024-02-28T02:32:49;16.70;;;9.25;;
75716;SDS011;64333;50.138;14.332;2024-02-28T02:35:15;13.40;;;8.82;;
75716;SDS011;64333;50.138;14.332;2024-02-28T02:37:43;13.75;;;9.27;;
75716;SDS011;64333;50.138;14.332;2024-02-28T02:40:11;12.05;;;8.27;;
75716;SDS011;64333;50.138;14.332;2024-02-28T02:42:37;13.48;;;8.82;;
75716;SDS011;64333;50.138;14.332;2024-02-28T02:45:02;14.45;;;8.63;;
75716;SDS011;64333;50.138;14.332;2024-02-28T02:47:28;12.40;;;9.00;;
75716;SDS011;64333;50.138;14.332;2024-02-28T02:49:54;13.25;;;9.13;;
75716;SDS011;64333;50.138;14.332;2024-02-28T02:52:19;15.20;;;10.02;;
75716;SDS011;64333;50.138;14.332;2024-02-28T02:54:44;13.80;;;9.07;;
75716;SDS011;64333;50.138;14.332;2024-02-28T02:57:10;12.80;;;8.73;;
75716;SDS011;64333;50.138;14.332;2024-02-28T02:59:35;13.88;;;9.55;;
75716;SDS011;64333;50.138;14.332;2024-02-28T03:02:01;15.93;;;9.15;;
75716;SDS011;64333;50.138;14.332;2024-02-28T03:04:26;16.33;;;9.07;;
75716;SDS011;64333;50.138;14.332;2024-02-28T03:06:51;14.80;;;9.70;;
75716;SDS011;64333;50.138;14.332;2024-02-28T03:09:17;12.18;;;8.48;;
75716;SDS011;64333;50.138;14.332;2024-02-28T03:11:42;13.30;;;9.15;;
75716;SDS011;64333;50.138;14.332;2024-02-28T03:14:08;12.65;;;8.82;;
75716;SDS011;64333;50.138;14.332;2024-02-28T03:16:33;14.57;;;9.65;;
75716;SDS011;64333;50.138;14.332;2024-02-28T03:19:02;13.80;;;8.90;;
75716;SDS011;64333;50.138;14.332;2024-02-28T03:21:28;13.68;;;9.10;;
75716;SDS011;64333;50.138;14.332;2024-02-28T03:23:53;13.60;;;9.27;;
75716;SDS011;64333;50.138;14.332;2024-02-28T03:26:18;13.68;;;9.52;;
75716;SDS011;64333;50.138;14.332;2024-02-28T03:28:44;16.40;;;10.52;;
75716;SDS011;64333;50.138;14.332;2024-02-28T03:31:09;18.02;;;10.32;;
75716;SDS011;64333;50.138;14.332;2024-02-28T03:33:34;14.40;;;9.60;;
75716;SDS011;64333;50.138;14.332;2024-02-28T03:36:00;17.17;;;9.60;;
75716;SDS011;64333;50.138;14.332;2024-02-28T03:38:25;15.45;;;9.63;;
75716;SDS011;64333;50.138;14.332;2024-02-28T03:40:51;14.07;;;9.48;;
75716;SDS011;64333;50.138;14.332;2024-02-28T03:43:16;15.30;;;10.10;;
75716;SDS011;64333;50.138;14.332;2024-02-28T03:45:41;15.00;;;9.50;;
75716;SDS011;64333;50.138;14.332;2024-02-28T03:48:07;16.50;;;10.35;;
75716;SDS011;64333;50.138;14.332;2024-02-28T03:50:32;16.17;;;10.20;;
75716;SDS011;64333;50.138;14.332;2024-02-28T03:52:58;16.42;;;9.98;;
75716;SDS011;64333;50.138;14.332;2024-02-28T03:55:23;14.40;;;9.30;;
75716;SDS011;64333;50.138;14.332;2024-02-28T03:57:48;16.75;;;9.95;;
75716;SDS011;64333;50.138;14.332;2024-02-28T04:00:16;14.60;;;10.38;;
75716;SDS011;64333;50.138;14.332;2024-02-28T04:02:42;16.30;;;10.65;;
75716;SDS011;64333;50.138;14.332;2024-02-28T04:05:07;14.43;;;9.68;;
75716;SDS011;64333;50.138;14.332;2024-02-28T04:07:33;16.38;;;9.60;;
75716;SDS011;64333;50.138;14.332;2024-02-28T04:09:58;16.02;;;9.90;;
75716;SDS011;64333;50.138;14.332;2024-02-28T04:12:24;17.25;;;9.98;;
75716;SDS011;64333;50.138;14.332;2024-02-28T04:14:49;16.45;;;9.98;;
75716;SDS011;64333;50.138;14.332;2024-02-28T04:17:14;16.27;;;9.48;;
75716;SDS011;64333;50.138;14.332;2024-02-28T04:19:40;15.18;;;9.70;;
75716;SDS011;64333;50.138;14.332;2024-02-28T04:22:05;16.88;;;9.30;;
75716;SDS011;64333;50.138;14.332;2024-02-28T04:24:30;15.77;;;10.40;;
75716;SDS011;64333;50.138;14.332;2024-02-28T04:26:57;16.35;;;9.63;;
75716;SDS011;64333;50.138;14.332;2024-02-28T04:29:24;15.98;;;10.10;;
75716;SDS011;64333;50.138;14.332;2024-02-28T04:31:50;17.92;;;9.90;;
75716;SDS011;64333;50.138;14.332;2024-02-28T04:34:15;18.17;;;10.57;;
75716;SDS011;64333;50.138;14.332;2024-02-28T04:36:40;15.77;;;10.07;;
75716;SDS011;64333;50.138;14.332;2024-02-28T04:39:05;14.18;;;9.48;;
75716;SDS011;64333;50.138;14.332;2024-02-28T04:41:32;18.27;;;10.35;;
75716;SDS011;64333;50.138;14.332;2024-02-28T04:43:58;15.35;;;9.98;;
75716;SDS011;64333;50.138;14.332;2024-02-28T04:46:24;18.00;;;10.10;;
75716;SDS011;64333;50.138;14.332;2024-02-28T04:48:49;17.25;;;10.02;;
75716;SDS011;64333;50.138;14.332;2024-02-28T04:51:15;16.17;;;10.40;;
75716;SDS011;64333;50.138;14.332;2024-02-28T04:53:42;18.45;;;10.57;;
75716;SDS011;64333;50.138;14.332;2024-02-28T04:56:08;15.15;;;10.40;;
75716;SDS011;64333;50.138;14.332;2024-02-28T04:58:33;13.90;;;9.70;;
75716;SDS011;64333;50.138;14.332;2024-02-28T05:00:58;17.65;;;10.40;;
75716;SDS011;64333;50.138;14.332;2024-02-28T05:03:24;14.88;;;9.63;;
75716;SDS011;64333;50.138;14.332;2024-02-28T05:05:50;15.07;;;10.15;;
75716;SDS011;64333;50.138;14.332;2024-02-28T05:08:15;15.30;;;9.32;;
75716;SDS011;64333;50.138;14.332;2024-02-28T05:10:41;16.30;;;9.40;;
75716;SDS011;64333;50.138;14.332;2024-02-28T05:13:06;15.90;;;10.43;;
75716;SDS011;64333;50.138;14.332;2024-02-28T05:15:31;16.52;;;10.75;;
75716;SDS011;64333;50.138;14.332;2024-02-28T05:17:58;16.70;;;10.52;;
75716;SDS011;64333;50.138;14.332;2024-02-28T05:20:23;16.27;;;10.15;;
75716;SDS011;64333;50.138;14.332;2024-02-28T05:22:49;20.70;;;11.75;;
75716;SDS011;64333;50.138;14.332;2024-02-28T05:25:14;17.00;;;10.48;;
75716;SDS011;64333;50.138;14.332;2024-02-28T05:27:40;16.75;;;9.73;;
75716;SDS011;64333;50.138;14.332;2024-02-28T05:30:05;16.10;;;10.18;;
75716;SDS011;64333;50.138;14.332;2024-02-28T05:32:34;17.40;;;10.65;;
75716;SDS011;64333;50.138;14.332;2024-02-28T05:34:59;18.27;;;9.95;;
75716;SDS011;64333;50.138;14.332;2024-02-28T05:37:25;19.10;;;11.15;;
75716;SDS011;64333;50.138;14.332;2024-02-28T05:39:50;16.65;;;10.95;;
75716;SDS011;64333;50.138;14.332;2024-02-28T05:42:15;18.38;;;9.75;;
75716;SDS011;64333;50.138;14.332;2024-02-28T05:44:46;16.25;;;9.48;;
75716;SDS011;64333;50.138;14.332;2024-02-28T05:47:15;18.58;;;11.95;;
75716;SDS011;64333;50.138;14.332;2024-02-28T05:49:40;24.65;;;15.07;;
75716;SDS011;64333;50.138;14.332;2024-02-28T05:52:06;36.50;;;18.50;;
75716;SDS011;64333;50.138;14.332;2024-02-28T05:54:31;16.20;;;10.00;;
75716;SDS011;64333;50.138;14.332;2024-02-28T05:56:58;26.77;;;15.65;;
75716;SDS011;64333;50.138;14.332;2024-02-28T05:59:24;18.42;;;11.10;;
75716;SDS011;64333;50.138;14.332;2024-02-28T06:01:50;17.55;;;10.52;;
75716;SDS011;64333;50.138;14.332;2024-02-28T06:04:15;18.33;;;10.55;;
75716;SDS011;64333;50.138;14.332;2024-02-28T06:06:41;28.27;;;15.02;;
75716;SDS011;64333;50.138;14.332;2024-02-28T06:09:06;19.13;;;11.18;;
75716;SDS011;64333;50.138;14.332;2024-02-28T06:11:32;17.35;;;11.07;;
75716;SDS011;64333;50.138;14.332;2024-02-28T06:13:58;16.50;;;10.52;;
75716;SDS011;64333;50.138;14.332;2024-02-28T06:16:24;15.90;;;9.98;;
75716;SDS011;64333;50.138;14.332;2024-02-28T06:18:49;18.52;;;10.68;;
75716;SDS011;64333;50.138;14.332;2024-02-28T06:21:15;16.67;;;9.80;;
75716;SDS011;64333;50.138;14.332;2024-02-28T06:23:40;15.80;;;9.60;;
75716;SDS011;64333;50.138;14.332;2024-02-28T06:26:05;15.50;;;10.13;;
75716;SDS011;64333;50.138;14.332;2024-02-28T06:28:31;15.43;;;9.73;;
75716;SDS011;64333;50.138;14.332;2024-02-28T06:30:57;14.40;;;9.30;;
75716;SDS011;64333;50.138;14.332;2024-02-28T06:33:22;14.50;;;10.18;;
75716;SDS011;64333;50.138;14.332;2024-02-28T06:35:48;16.23;;;10.32;;
75716;SDS011;64333;50.138;14.332;2024-02-28T06:38:14;28.02;;;15.35;;
75716;SDS011;64333;50.138;14.332;2024-02-28T06:40:39;13.52;;;9.35;;
75716;SDS011;64333;50.138;14.332;2024-02-28T06:43:05;14.20;;;8.88;;
75716;SDS011;64333;50.138;14.332;2024-02-28T06:45:30;14.40;;;8.95;;
75716;SDS011;64333;50.138;14.332;2024-02-28T06:47:56;12.13;;;8.27;;
75716;SDS011;64333;50.138;14.332;2024-02-28T06:50:21;13.43;;;8.82;;
75716;SDS011;64333;50.138;14.332;2024-02-28T06:52:46;13.40;;;8.85;;
75716;SDS011;64333;50.138;14.332;2024-02-28T06:55:12;15.40;;;9.25;;
75716;SDS011;64333;50.138;14.332;2024-02-28T06:57:39;12.98;;;9.15;;
75716;SDS011;64333;50.138;14.332;2024-02-28T07:00:08;13.65;;;7.38;;
75716;SDS011;64333;50.138;14.332;2024-02-28T07:02:37;12.18;;;7.75;;
75716;SDS011;64333;50.138;14.332;2024-02-28T07:05:03;9.85;;;7.38;;
75716;SDS011;64333;50.138;14.332;2024-02-28T07:07:30;10.85;;;7.95;;
75716;SDS011;64333;50.138;14.332;2024-02-28T07:09:56;12.13;;;7.50;;
75716;SDS011;64333;50.138;14.332;2024-02-28T07:12:22;9.82;;;6.97;;
75716;SDS011;64333;50.138;14.332;2024-02-28T07:14:47;11.38;;;8.02;;
75716;SDS011;64333;50.138;14.332;2024-02-28T07:17:12;13.25;;;7.93;;
75716;SDS011;64333;50.138;14.332;2024-02-28T07:19:37;10.45;;;7.30;;
75716;SDS011;64333;50.138;14.332;2024-02-28T07:22:03;12.63;;;8.05;;
75716;SDS011;64333;50.138;14.332;2024-02-28T07:24:30;12.38;;;7.90;;
75716;SDS011;64333;50.138;14.332;2024-02-28T07:26:56;11.18;;;7.43;;
75716;SDS011;64333;50.138;14.332;2024-02-28T07:29:22;10.85;;;7.07;;
75716;SDS011;64333;50.138;14.332;2024-02-28T07:31:47;10.98;;;6.82;;
75716;SDS011;64333;50.138;14.332;2024-02-28T07:34:15;14.20;;;8.27;;
75716;SDS011;64333;50.138;14.332;2024-02-28T07:36:40;9.88;;;6.90;;
75716;SDS011;64333;50.138;14.332;2024-02-28T07:39:05;9.70;;;7.22;;
75716;SDS011;64333;50.138;14.332;2024-02-28T07:41:31;10.13;;;6.95;;
75716;SDS011;64333;50.138;14.332;2024-02-28T07:43:57;12.18;;;7.40;;
75716;SDS011;64333;50.138;14.332;2024-02-28T07:46:22;10.23;;;7.22;;
75716;SDS011;64333;50.138;14.332;2024-02-28T07:48:48;10.43;;;6.75;;
75716;SDS011;64333;50.138;14.332;2024-02-28T07:51:13;9.60;;;7.20;;
75716;SDS011;64333;50.138;14.332;2024-02-28T07:53:40;12.18;;;7.55;;
75716;SDS011;64333;50.138;14.332;2024-02-28T07:56:05;10.30;;;6.90;;
75716;SDS011;64333;50.138;14.332;2024-02-28T07:58:31;9.32;;;6.80;;
75716;SDS011;64333;50.138;14.332;2024-02-28T08:00:56;10.85;;;7.25;;
75716;SDS011;64333;50.138;14.332;2024-02-28T08:03:21;11.65;;;7.53;;
75716;SDS011;64333;50.138;14.332;2024-02-28T08:05:47;10.68;;;7.05;;
75716;SDS011;64333;50.138;14.332;2024-02-28T08:08:13;11.43;;;7.43;;
75716;SDS011;64333;50.138;14.332;2024-02-28T08:10:39;10.30;;;6.88;;
75716;SDS011;64333;50.138;14.332;2024-02-28T08:13:05;11.85;;;7.45;;
75716;SDS011;64333;50.138;14.332;2024-02-28T08:15:30;9.52;;;6.78;;
75716;SDS011;64333;50.138;14.332;2024-02-28T08:17:57;10.00;;;7.97;;
75716;SDS011;64333;50.138;14.332;2024-02-28T08:20:23;11.15;;;7.60;;
75716;SDS011;64333;50.138;14.332;2024-02-28T08:22:48;14.38;;;8.52;;
75716;SDS011;64333;50.138;14.332;2024-02-28T08:25:13;10.23;;;7.20;;
75716;SDS011;64333;50.138;14.332;2024-02-28T08:27:39;12.02;;;7.72;;
75716;SDS011;64333;50.138;14.332;2024-02-28T08:30:05;11.93;;;7.30;;
75716;SDS011;64333;50.138;14.332;2024-02-28T08:32:31;11.90;;;7.40;;
75716;SDS011;64333;50.138;14.332;2024-02-28T08:34:57;11.38;;;7.07;;
75716;SDS011;64333;50.138;14.332;2024-02-28T08:37:23;10.57;;;7.78;;
75716;SDS011;64333;50.138;14.332;2024-02-28T08:39:48;11.70;;;7.93;;
75716;SDS011;64333;50.138;14.332;2024-02-28T08:42:14;13.48;;;8.60;;
75716;SDS011;64333;50.138;14.332;2024-02-28T08:44:39;13.30;;;9.27;;
75716;SDS011;64333;50.138;14.332;2024-02-28T08:47:05;14.80;;;9.68;;
75716;SDS011;64333;50.138;14.332;2024-02-28T08:49:32;15.65;;;9.95;;
75716;SDS011;64333;50.138;14.332;2024-02-28T08:51:58;14.77;;;9.45;;
75716;SDS011;64333;50.138;14.332;2024-02-28T08:54:23;15.63;;;9.95;;
75716;SDS011;64333;50.138;14.332;2024-02-28T08:56:48;18.50;;;11.65;;
75716;SDS011;64333;50.138;14.332;2024-02-28T08:59:14;15.43;;;11.05;;
75716;SDS011;64333;50.138;14.332;2024-02-28T09:01:39;17.50;;;10.85;;
75716;SDS011;64333;50.138;14.332;2024-02-28T09:04:06;17.73;;;10.45;;
75716;SDS011;64333;50.138;14.332;2024-02-28T09:06:32;19.08;;;12.48;;
75716;SDS011;64333;50.138;14.332;2024-02-28T09:08:57;17.27;;;11.10;;
75716;SDS011;64333;50.138;14.332;2024-02-28T09:11:23;18.88;;;11.93;;
75716;SDS011;64333;50.138;14.332;2024-02-28T09:13:48;21.50;;;12.82;;
75716;SDS011;64333;50.138;14.332;2024-02-28T09:16:13;19.83;;;12.50;;
75716;SDS011;64333;50.138;14.332;2024-02-28T09:18:39;18.45;;;11.70;;
75716;SDS011;64333;50.138;14.332;2024-02-28T09:21:04;19.08;;;12.25;;
75716;SDS011;64333;50.138;14.332;2024-02-28T09:23:29;21.37;;;14.20;;
75716;SDS011;64333;50.138;14.332;2024-02-28T09:25:56;19.35;;;12.63;;
75716;SDS011;64333;50.138;14.332;2024-02-28T09:28:21;19.70;;;11.75;;
75716;SDS011;64333;50.138;14.332;2024-02-28T09:30:47;16.58;;;11.35;;
75716;SDS011;64333;50.138;14.332;2024-02-28T09:33:15;14.65;;;9.15;;
75716;SDS011;64333;50.138;14.332;2024-02-28T09:35:40;18.30;;;9.90;;
75716;SDS011;64333;50.138;14.332;2024-02-28T09:38:07;15.95;;;10.90;;
75716;SDS011;64333;50.138;14.332;2024-02-28T09:40:32;17.65;;;11.30;;
75716;SDS011;64333;50.138;14.332;2024-02-28T09:43:00;15.65;;;10.38;;
75716;SDS011;64333;50.138;14.332;2024-02-28T09:45:28;14.18;;;9.35;;
75716;SDS011;64333;50.138;14.332;2024-02-28T09:47:56;15.15;;;9.45;;
75716;SDS011;64333;50.138;14.332;2024-02-28T09:50:22;11.80;;;8.55;;
75716;SDS011;64333;50.138;14.332;2024-02-28T09:52:48;11.82;;;8.23;;
75716;SDS011;64333;50.138;14.332;2024-02-28T09:55:14;12.13;;;8.13;;
75716;SDS011;64333;50.138;14.332;2024-02-28T09:57:40;12.75;;;8.23;;
75716;SDS011;64333;50.138;14.332;2024-02-28T10:00:09;12.27;;;8.45;;
75716;SDS011;64333;50.138;14.332;2024-02-28T10:02:35;14.32;;;9.35;;
75716;SDS011;64333;50.138;14.332;2024-02-28T10:05:02;20.65;;;13.15;;
75716;SDS011;64333;50.138;14.332;2024-02-28T10:07:29;23.25;;;13.25;;
75716;SDS011;64333;50.138;14.332;2024-02-28T10:09:56;21.02;;;12.15;;
75716;SDS011;64333;50.138;14.332;2024-02-28T10:12:21;18.10;;;12.25;;
75716;SDS011;64333;50.138;14.332;2024-02-28T10:14:49;20.08;;;12.35;;
75716;SDS011;64333;50.138;14.332;2024-02-28T10:17:16;15.45;;;10.73;;
75716;SDS011;64333;50.138;14.332;2024-02-28T10:19:41;11.30;;;8.05;;
75716;SDS011;64333;50.138;14.332;2024-02-28T10:22:06;12.15;;;7.65;;
75716;SDS011;64333;50.138;14.332;2024-02-28T10:24:33;12.00;;;8.45;;
75716;SDS011;64333;50.138;14.332;2024-02-28T10:27:00;10.82;;;7.07;;
75716;SDS011;64333;50.138;14.332;2024-02-28T10:29:26;9.02;;;6.72;;
75716;SDS011;64333;50.138;14.332;2024-02-28T10:31:57;9.82;;;6.45;;
75716;SDS011;64333;50.138;14.332;2024-02-28T10:34:23;8.32;;;7.18;;
75716;SDS011;64333;50.138;14.332;2024-02-28T10:36:49;9.30;;;7.43;;
75716;SDS011;64333;50.138;14.332;2024-02-28T10:39:14;9.25;;;7.03;;
75716;SDS011;64333;50.138;14.332;2024-02-28T10:41:40;9.50;;;6.78;;
75716;SDS011;64333;50.138;14.332;2024-02-28T10:44:06;9.70;;;7.50;;
75716;SDS011;64333;50.138;14.332;2024-02-28T10:46:32;9.50;;;6.78;;
75716;SDS011;64333;50.138;14.332;2024-02-28T10:48:57;8.13;;;6.68;;
75716;SDS011;64333;50.138;14.332;2024-02-28T10:51:23;9.93;;;6.90;;
75716;SDS011;64333;50.138;14.332;2024-02-28T10:53:54;11.38;;;7.80;;
75716;SDS011;64333;50.138;14.332;2024-02-28T10:56:27;10.48;;;8.00;;
75716;SDS011;64333;50.138;14.332;2024-02-28T10:58:54;11.50;;;8.15;;
75716;SDS011;64333;50.138;14.332;2024-02-28T11:01:22;11.88;;;8.15;;
75716;SDS011;64333;50.138;14.332;2024-02-28T11:03:48;9.02;;;7.07;;
75716;SDS011;64333;50.138;14.332;2024-02-28T11:06:18;10.90;;;7.22;;
75716;SDS011;64333;50.138;14.332;2024-02-28T11:08:46;9.77;;;7.38;;
75716;SDS011;64333;50.138;14.332;2024-02-28T11:11:14;10.40;;;6.95;;
75716;SDS011;64333;50.138;14.332;2024-02-28T11:13:51;10.02;;;7.15;;
75716;SDS011;64333;50.138;14.332;2024-02-28T11:16:26;9.45;;;7.05;;
75716;SDS011;64333;50.138;14.332;2024-02-28T11:18:56;9.13;;;6.45;;
75716;SDS011;64333;50.138;14.332;2024-02-28T11:21:25;11.35;;;8.18;;
75716;SDS011;64333;50.138;14.332;2024-02-28T11:23:51;10.90;;;7.40;;
75716;SDS011;64333;50.138;14.332;2024-02-28T11:26:17;12.05;;;8.57;;
75716;SDS011;64333;50.138;14.332;2024-02-28T11:28:43;11.15;;;8.07;;
75716;SDS011;64333;50.138;14.332;2024-02-28T11:31:08;10.63;;;7.53;;
75716;SDS011;64333;50.138;14.332;2024-02-28T11:33:35;9.90;;;7.18;;
75716;SDS011;64333;50.138;14.332;2024-02-28T11:36:01;11.93;;;8.40;;
75716;SDS011;64333;50.138;14.332;2024-02-28T11:38:28;11.90;;;8.70;;
75716;SDS011;64333;50.138;14.332;2024-02-28T11:40:54;10.95;;;7.38;;
75716;SDS011;64333;50.138;14.332;2024-02-28T11:43:20;12.45;;;8.13;;
75716;SDS011;64333;50.138;14.332;2024-02-28T11:45:46;11.80;;;8.50;;
75716;SDS011;64333;50.138;14.332;2024-02-28T11:48:12;10.68;;;7.90;;
75716;SDS011;64333;50.138;14.332;2024-02-28T11:50:41;11.60;;;7.60;;
75716;SDS011;64333;50.138;14.332;2024-02-28T11:53:07;11.65;;;7.53;;
75716;SDS011;64333;50.138;14.332;2024-02-28T11:55:33;12.43;;;8.70;;
75716;SDS011;64333;50.138;14.332;2024-02-28T11:57:58;11.93;;;8.45;;
75716;SDS011;64333;50.138;14.332;2024-02-28T12:00:23;14.18;;;9.68;;
75716;SDS011;64333;50.138;14.332;2024-02-28T12:02:49;13.63;;;9.98;;
75716;SDS011;64333;50.138;14.332;2024-02-28T12:05:14;12.95;;;9.00;;
75716;SDS011;64333;50.138;14.332;2024-02-28T12:07:40;13.35;;;9.38;;
75716;SDS011;64333;50.138;14.332;2024-02-28T12:10:06;11.75;;;9.32;;
75716;SDS011;64333;50.138;14.332;2024-02-28T12:12:34;16.33;;;10.65;;
75716;SDS011;64333;50.138;14.332;2024-02-28T12:14:59;14.15;;;9.88;;
75716;SDS011;64333;50.138;14.332;2024-02-28T12:17:25;14.82;;;10.38;;
75716;SDS011;64333;50.138;14.332;2024-02-28T12:19:51;16.17;;;10.63;;
75716;SDS011;64333;50.138;14.332;2024-02-28T12:22:17;14.68;;;10.65;;
75716;SDS011;64333;50.138;14.332;2024-02-28T12:24:42;13.45;;;10.27;;
75716;SDS011;64333;50.138;14.332;2024-02-28T12:27:07;15.02;;;10.00;;
75716;SDS011;64333;50.138;14.332;2024-02-28T12:29:33;12.82;;;10.05;;
75716;SDS011;64333;50.138;14.332;2024-02-28T12:31:58;14.40;;;9.43;;
75716;SDS011;64333;50.138;14.332;2024-02-28T12:34:24;15.95;;;10.32;;
75716;SDS011;64333;50.138;14.332;2024-02-28T12:36:49;14.45;;;9.43;;
75716;SDS011;64333;50.138;14.332;2024-02-28T12:39:14;12.98;;;9.57;;
75716;SDS011;64333;50.138;14.332;2024-02-28T12:41:40;13.77;;;9.45;;
75716;SDS011;64333;50.138;14.332;2024-02-28T12:44:05;14.50;;;9.95;;
75716;SDS011;64333;50.138;14.332;2024-02-28T12:46:32;15.43;;;9.93;;
75716;SDS011;64333;50.138;14.332;2024-02-28T12:48:58;15.80;;;10.43;;
75716;SDS011;64333;50.138;14.332;2024-02-28T12:51:37;17.05;;;11.70;;
75716;SDS011;64333;50.138;14.332;2024-02-28T12:54:11;15.23;;;10.15;;
75716;SDS011;64333;50.138;14.332;2024-02-28T12:56:38;13.75;;;9.98;;
75716;SDS011;64333;50.138;14.332;2024-02-28T12:59:04;15.95;;;9.73;;
75716;SDS011;64333;50.138;14.332;2024-02-28T13:01:31;13.13;;;10.02;;
75716;SDS011;64333;50.138;14.332;2024-02-28T13:03:56;15.73;;;10.52;;
75716;SDS011;64333;50.138;14.332;2024-02-28T13:06:22;14.55;;;9.40;;
75716;SDS011;64333;50.138;14.332;2024-02-28T13:08:47;15.30;;;11.10;;
75716;SDS011;64333;50.138;14.332;2024-02-28T13:11:20;14.32;;;9.95;;
75716;SDS011;64333;50.138;14.332;2024-02-28T13:13:47;13.50;;;9.63;;
75716;SDS011;64333;50.138;14.332;2024-02-28T13:16:14;14.30;;;10.52;;
75716;SDS011;64333;50.138;14.332;2024-02-28T13:18:42;13.77;;;9.45;;
75716;SDS011;64333;50.138;14.332;2024-02-28T13:21:08;13.35;;;9.75;;
75716;SDS011;64333;50.138;14.332;2024-02-28T13:23:35;15.73;;;10.80;;
75716;SDS011;64333;50.138;14.332;2024-02-28T13:26:00;16.08;;;10.93;;
75716;SDS011;64333;50.138;14.332;2024-02-28T13:28:29;15.85;;;10.02;;
75716;SDS011;64333;50.138;14.332;2024-02-28T13:30:56;14.40;;;10.48;;
75716;SDS011;64333;50.138;14.332;2024-02-28T13:33:25;18.00;;;12.30;;
75716;SDS011;64333;50.138;14.332;2024-02-28T13:35:51;14.85;;;9.55;;
75716;SDS011;64333;50.138;14.332;2024-02-28T13:38:18;16.30;;;10.77;;
75716;SDS011;64333;50.138;14.332;2024-02-28T13:40:44;13.85;;;10.45;;
75716;SDS011;64333;50.138;14.332;2024-02-28T13:43:11;15.95;;;11.27;;
75716;SDS011;64333;50.138;14.332;2024-02-28T13:45:39;14.98;;;10.15;;
75716;SDS011;64333;50.138;14.332;2024-02-28T13:51:01;14.05;;;9.88;;
75716;SDS011;64333;50.138;14.332;2024-02-28T13:53:29;13.70;;;10.25;;
75716;SDS011;64333;50.138;14.332;2024-02-28T13:55:55;13.20;;;10.70;;
75716;SDS011;64333;50.138;14.332;2024-02-28T13:58:20;13.95;;;10.02;;
75716;SDS011;64333;50.138;14.332;2024-02-28T14:00:45;14.05;;;10.07;;
75716;SDS011;64333;50.138;14.332;2024-02-28T14:03:12;15.73;;;10.93;;
75716;SDS011;64333;50.138;14.332;2024-02-28T14:05:37;15.18;;;11.07;;
75716;SDS011;64333;50.138;14.332;2024-02-28T14:08:02;16.90;;;11.63;;
75716;SDS011;64333;50.138;14.332;2024-02-28T14:10:29;16.27;;;11.48;;
75716;SDS011;64333;50.138;14.332;2024-02-28T14:12:55;16.02;;;11.13;;